• Join FlightAware (Why Join?)
  • Login
  • US Flag 
05:24AM EDT


 

Airport Tracker/Info


-or-


 

Live Flight TrackerFlight Track Log ✈ EJA941 ✈ 09-Jan-2014 ✈ KDAL - KPHX

Flight Track Log - Related Links

Times and Time Zones

All times are in EST time to prevent confusion due to time zone crossing. See the EJA941 flight status page for this flight to view local times or setup timezone preferences in your user account.

Time Position Orientation Groundspeed Altitude Reporting Facility
EST Latitude Longitude Course Direction KTS MPH feet Rate Location/Type
10:18AM 32.8000 -96.7833 128° Southeast 220 253 4,600  Level Dallas / Fort Worth TRACON
10:19AM 32.7500 -96.7667 164° South 234 269 7,900 1,740 Climbing Dallas / Fort Worth TRACON
10:20AM 32.7000 -96.8333 228° Southwest 256 295 8,000 1,620 Climbing Dallas / Fort Worth TRACON
10:21AM 32.6500 -96.9167 235° Southwest 277 319 11,200 2,580 Climbing Dallas / Fort Worth TRACON
10:22AM 32.6500 -97.0000 270° West 318 366 13,200 1,980 Climbing Dallas / Fort Worth TRACON
10:24AM 32.6672 -97.2200 275° West 342 394 17,000 1,740 Climbing Fort Worth Center
10:25AM 32.6761 -97.3372 275° West 355 409 18,500 1,740 Climbing Fort Worth Center
10:26AM 32.6872 -97.4661 276° West 361 415 20,600 1,980 Climbing Fort Worth Center
10:27AM 32.6967 -97.5856 275° West 362 417 22,600 1,620 Climbing Fort Worth Center
10:28AM 32.7047 -97.6983 275° West 369 425 24,000 960 Climbing Fort Worth Center
10:29AM 32.7147 -97.8328 275° West 404 465 24,600 1,020 Climbing Fort Worth Center
10:30AM 32.7250 -97.9703 275° West 416 479 26,200 1,740 Climbing Fort Worth Center
10:31AM 32.7142 -98.1042 265° West 412 474 28,200 2,040 Climbing Fort Worth Center
10:32AM 32.6956 -98.2653 262° West 411 473 30,500 1,800 Climbing Fort Worth Center
10:33AM 32.6867 -98.4028 266° West 417 480 31,900 720 Climbing Fort Worth Center
10:34AM 32.6775 -98.5567 266° West 443 510 32,000  Climbing Fort Worth Center
10:35AM 32.6683 -98.7083 266° West 458 527 32,000 480 Level Fort Worth Center
10:36AM 32.6586 -98.8581 266° West 455 524 33,100 1,320 Climbing Fort Worth Center
10:37AM 32.6481 -99.0019 265° West 440 506 34,800 1,560 Climbing Fort Worth Center
10:38AM 32.6394 -99.1433 266° West 430 495 36,300 1,560 Climbing Fort Worth Center
10:39AM 32.6286 -99.2814 265° West 421 484 38,000 1,500 Climbing Fort Worth Center
10:40AM 32.6189 -99.4197 265° West 421 484 39,500 1,680 Climbing Fort Worth Center
10:41AM 32.6078 -99.5786 265° West 404 465 41,500 1,500 Climbing Fort Worth Center
10:42AM 32.5986 -99.7064 265° West 389 448 42,700 720 Climbing Fort Worth Center
10:43AM 32.5925 -99.8292 267° West 389 448 43,000 120 Climbing Fort Worth Center
10:44AM 32.5839 -99.9756 266° West 406 467 43,000  Level Fort Worth Center
10:45AM 32.5697 -100.1164 263° West 421 484 43,000  Level Fort Worth Center
10:46AM 32.5592 -100.2603 265° West 433 498 43,000  Level Fort Worth Center
10:47AM 32.5483 -100.4058 265° West 441 507 43,000  Level Fort Worth Center
10:48AM 32.5378 -100.5508 265° West 442 509 43,000  Level Fort Worth Center
10:49AM 32.5264 -100.6956 265° West 442 509 43,000  Level Fort Worth Center
10:50AM 32.5139 -100.8386 264° West 438 504 43,000  Level Fort Worth Center
10:52AM 32.5017 -101.0103 265° West 436 502 43,000  Level Fort Worth Center
10:53AM 32.4892 -101.1522 264° West 435 501 43,000  Level Fort Worth Center
10:54AM 32.4761 -101.2983 264° West 432 497 43,000  Level Fort Worth Center
10:55AM 32.4631 -101.4389 264° West 432 497 43,000  Level Fort Worth Center
10:56AM 32.4514 -101.5808 264° West 434 499 43,000  Level Fort Worth Center
10:57AM 32.4383 -101.7217 264° West 433 498 43,000  Level Fort Worth Center
10:58AM 32.4256 -101.8639 264° West 436 502 43,000  Level Fort Worth Center
10:59AM 32.4097 -102.0350 264° West 437 503 43,000  Level Fort Worth Center
11:00AM 32.3961 -102.1769 264° West 436 502 43,000  Level Fort Worth Center
11:01AM 32.3822 -102.3206 264° West 435 501 43,000  Level Fort Worth Center
11:02AM 32.3694 -102.4644 264° West 433 498 43,000  Level Fort Worth Center
11:03AM 32.3561 -102.6075 264° West 433 498 43,000  Level Fort Worth Center
11:04AM 32.3425 -102.7492 264° West 432 497 43,000  Level Fort Worth Center
11:05AM 32.3289 -102.8897 263° West 432 497 43,000  Level Fort Worth Center
11:06AM 32.3150 -103.0306 263° West 431 496 43,000  Level Fort Worth Center
11:07AM 32.2983 -103.1986 263° West 431 496 43,000  Level Fort Worth Center
11:08AM 32.2853 -103.3394 264° West 433 498 43,000  Level Fort Worth Center
11:09AM 32.2694 -103.4797 262° West 432 497 43,000  Level Fort Worth Center
11:10AM 32.2553 -103.6206 263° West 433 498 43,000  Level Fort Worth Center
11:11AM 32.2408 -103.7622 263° West 434 499 43,000  Level Fort Worth Center
11:12AM 32.2250 -103.9031 262° West 435 501 43,000  Level Fort Worth Center
11:13AM 32.2072 -104.0731 263° West 436 502 43,000  Level Fort Worth Center
11:14AM 32.2022 -104.1286 264° West 438 504 43,000  Level Albuquerque Center
11:15AM 32.1864 -104.2700 262° West 438 504 43,000  Level Albuquerque Center
11:16AM 32.1708 -104.4125 263° West 439 505 43,000  Level Albuquerque Center
11:17AM 32.1517 -104.5833 262° West 440 506 43,000  Level Albuquerque Center
11:18AM 32.1356 -104.7253 262° West 440 506 43,000  Level Albuquerque Center
11:19AM 32.1194 -104.8672 262° West 440 506 43,000  Level Albuquerque Center
11:20AM 32.1031 -105.0078 262° West 437 503 43,000  Level Albuquerque Center
11:21AM 32.0869 -105.1508 262° West 439 505 43,000  Level Albuquerque Center
11:22AM 32.0667 -105.3219 262° West 441 507 43,000  Level Albuquerque Center
11:23AM 32.0503 -105.4642 262° West 442 509 43,000  Level Albuquerque Center
11:24AM 32.0319 -105.6097 262° West 449 517 43,000  Level Albuquerque Center
11:25AM 32.0158 -105.7547 263° West 450 518 43,000  Level Albuquerque Center
11:26AM 31.9969 -105.8994 261° West 450 518 43,000  Level Albuquerque Center
11:27AM 31.9789 -106.0531 262° West 452 520 43,000  Level Albuquerque Center
11:28AM 31.9608 -106.1978 262° West 448 516 43,000  Level Albuquerque Center
11:29AM 31.9636 -106.3761 271° West 456 525 43,000  Level Albuquerque Center
11:30AM 31.9817 -106.5242 278° West 457 526 43,000  Level Albuquerque Center
11:31AM 31.9992 -106.6719 278° West 456 525 43,000  Level Albuquerque Center
11:32AM 32.0172 -106.8211 278° West 458 527 43,000  Level Albuquerque Center
11:33AM 32.0344 -106.9717 278° West 461 531 43,000  Level Albuquerque Center
11:34AM 32.0500 -107.1222 277° West 461 531 43,000  Level Albuquerque Center
11:35AM 32.0667 -107.2731 277° West 461 531 43,000  Level Albuquerque Center
11:36AM 32.0833 -107.4228 278° West 459 528 43,000  Level Albuquerque Center
11:37AM 32.1017 -107.6050 277° West 461 531 43,000  Level Albuquerque Center
11:38AM 32.1158 -107.7528 276° West 458 527 43,000  Level Albuquerque Center
11:40AM 32.1308 -107.9022 277° West 457 526 43,000  Level Albuquerque Center
11:41AM 32.1458 -108.0519 277° West 457 526 43,000  Level Albuquerque Center
11:42AM 32.1614 -108.2025 277° West 460 529 43,000  Level Albuquerque Center
11:43AM 32.1772 -108.3528 277° West 461 531 43,000  Level Albuquerque Center
11:44AM 32.1956 -108.5047 278° West 463 533 43,000  Level Albuquerque Center
11:45AM 32.2106 -108.6561 277° West 464 534 43,000  Level Albuquerque Center
11:46AM 32.2269 -108.8361 276° West 461 531 43,000  Level Albuquerque Center
11:47AM 32.2425 -108.9839 277° West 456 525 43,000 -360 Level Albuquerque Center
11:48AM 32.2564 -109.1342 276° West 458 527 42,300 -840 Descending Albuquerque Center
11:49AM 32.2722 -109.2814 277° West 454 522 41,300 -1,020 Descending Albuquerque Center
11:50AM 32.3061 -109.4192 286° West 435 501 40,300 -1,260 Descending Albuquerque Center
11:51AM 32.3406 -109.5631 286° West 449 517 38,800 -1,500 Descending Albuquerque Center
11:52AM 32.3753 -109.7008 287° West 440 506 37,300 -1,620 Descending Albuquerque Center
11:53AM 32.4081 -109.8375 286° West 433 498 35,600 -1,920 Descending Albuquerque Center
11:54AM 32.4497 -110.0064 286° West 441 507 33,400 -2,280 Descending Albuquerque Center
11:55AM 32.4839 -110.1511 286° West 453 521 31,000 -2,340 Descending Albuquerque Center
11:56AM 32.5192 -110.2956 286° West 456 525 28,600 -2,340 Descending Albuquerque Center
11:57AM 32.5517 -110.4411 285° West 424 488 26,200 -2,220 Descending Albuquerque Center
11:58AM 32.5861 -110.5761 287° West 424 488 24,100 -1,080 Descending Albuquerque Center
11:59AM 32.6461 -110.6992 300° West 427 491 24,000 -60 Descending Albuquerque Center
12:00PM 32.7117 -110.8197 303° West 434 499 24,000 -360 Level Albuquerque Center
12:01PM 32.7800 -110.9472 303° West 449 517 23,300 -1,440 Descending Albuquerque Center
12:02PM 32.8461 -111.0731 302° West 452 520 21,100 -2,100 Descending Albuquerque Center
12:03PM 32.9006 -111.1856 300° West 404 465 19,000 -2,100 Descending Albuquerque Center
12:04PM 32.9539 -111.2983 299° West 328 377 16,800 -1,980 Descending Albuquerque Center
12:05PM 32.9931 -111.3842 299° West 299 344 15,000 -1,620 Descending Albuquerque Center
12:06PM 33.0358 -111.4678 301° West 296 341 13,600 -1,440 Descending Albuquerque Center
12:07PM 33.0772 -111.5492 301° West 290 334 12,100 -780 Descending Albuquerque Center
12:08PM 33.1181 -111.6278 302° West 282 325 12,000 -480 Descending Albuquerque Center
12:09PM 33.1583 -111.7086 301° West 282 325 11,200 -1,020 Descending Albuquerque Center
12:10PM 33.1997 -111.7906 301° West 287 330 10,000 -600 Descending Albuquerque Center
12:11PM 33.2481 -111.8864 301° West 281 323 10,000 -600 Level Albuquerque Center
12:12PM 33.2842 -111.9583 301° West 257 296 8,800 -1,140 Descending Albuquerque Center
12:14PM 33.3178 -112.0250 301° West 238 274 7,700 -1,020 Descending Albuquerque Center
12:15PM 33.3428 -112.0869 296° West 205 236 6,700 -840 Descending Albuquerque Center
12:16PM 33.3425 -112.1514 270° West 194 223 6,000 -360 Descending Albuquerque Center
12:17PM 33.3428 -112.2131 270° West 188 216 6,000 -360 Level Albuquerque Center
12:18PM 33.3667 -112.2572 303° West 190 219 5,300 -780 Descending Albuquerque Center
12:19PM 33.4119 -112.2219 33° Northeast 174 200 4,500 -900 Descending Albuquerque Center
12:20PM 33.4289 -112.1686 69° East 169 194 3,500 -900 Descending Albuquerque Center
12:21PM 33.4333 -112.1167 84° East 156 180 2,700 -840 Descending Phoenix TRACON
12:22PM 33.4333 -112.0833 90° East 133 153 2,000 -780 Descending Phoenix TRACON